Terminal Aerodrome Forecast
Issued by NWS

Home | Current Version | Previous Version | Text Only | Print | Product List | Glossary On
Versions: 1 2 3 4 5 6 7 8 9 10 11 12 13 14 15 16
734
FTUS46 KPDT 061422 AAA
TAFBDN
TAF AMD
KBDN 061422Z 0614/0712 22012KT P6SM FEW060 SCT200
     FM061800 19006KT P6SM SCT120 BKN200
     FM070300 19004KT P6SM BKN070=

USA.gov is the U.S. government's official web portal to all federal, state and local government web resources and services.